sensor_id;sensor_type;location;lat;lon;timestamp;P1;durP1;ratioP1;P2;durP2;ratioP2
11653;SDS011;5883;48.818;9.114;2023-02-17T00:01:47;5.30;;;3.38;;
11653;SDS011;5883;48.818;9.114;2023-02-17T00:04:35;6.03;;;3.63;;
11653;SDS011;5883;48.818;9.114;2023-02-17T00:07:22;5.85;;;3.60;;
11653;SDS011;5883;48.818;9.114;2023-02-17T00:10:09;6.15;;;3.30;;
11653;SDS011;5883;48.818;9.114;2023-02-17T00:12:55;5.88;;;3.28;;
11653;SDS011;5883;48.818;9.114;2023-02-17T00:15:22;4.18;;;3.00;;
11653;SDS011;5883;48.818;9.114;2023-02-17T00:17:51;6.15;;;3.60;;
11653;SDS011;5883;48.818;9.114;2023-02-17T00:20:19;4.35;;;3.20;;
11653;SDS011;5883;48.818;9.114;2023-02-17T00:22:46;6.15;;;3.38;;
11653;SDS011;5883;48.818;9.114;2023-02-17T00:25:12;4.97;;;3.05;;
11653;SDS011;5883;48.818;9.114;2023-02-17T00:27:39;5.38;;;3.28;;
11653;SDS011;5883;48.818;9.114;2023-02-17T00:30:06;6.25;;;3.53;;
11653;SDS011;5883;48.818;9.114;2023-02-17T00:32:33;8.57;;;3.25;;
11653;SDS011;5883;48.818;9.114;2023-02-17T00:34:59;6.28;;;2.97;;
11653;SDS011;5883;48.818;9.114;2023-02-17T00:37:27;5.32;;;3.22;;
11653;SDS011;5883;48.818;9.114;2023-02-17T00:39:53;5.80;;;2.95;;
11653;SDS011;5883;48.818;9.114;2023-02-17T00:42:20;7.80;;;3.08;;
11653;SDS011;5883;48.818;9.114;2023-02-17T00:44:46;5.57;;;2.97;;
11653;SDS011;5883;48.818;9.114;2023-02-17T00:47:13;5.38;;;2.83;;
11653;SDS011;5883;48.818;9.114;2023-02-17T00:49:39;4.50;;;3.15;;
11653;SDS011;5883;48.818;9.114;2023-02-17T00:52:06;3.47;;;2.78;;
11653;SDS011;5883;48.818;9.114;2023-02-17T00:54:34;6.75;;;3.33;;
11653;SDS011;5883;48.818;9.114;2023-02-17T00:57:00;6.22;;;3.33;;
11653;SDS011;5883;48.818;9.114;2023-02-17T00:59:27;5.60;;;3.30;;
11653;SDS011;5883;48.818;9.114;2023-02-17T01:01:53;4.50;;;2.88;;
11653;SDS011;5883;48.818;9.114;2023-02-17T01:04:19;4.35;;;2.78;;
11653;SDS011;5883;48.818;9.114;2023-02-17T01:06:46;5.35;;;3.10;;
11653;SDS011;5883;48.818;9.114;2023-02-17T01:09:13;3.25;;;2.65;;
11653;SDS011;5883;48.818;9.114;2023-02-17T01:11:41;4.60;;;2.85;;
11653;SDS011;5883;48.818;9.114;2023-02-17T01:14:09;3.97;;;3.35;;
11653;SDS011;5883;48.818;9.114;2023-02-17T01:16:37;5.47;;;3.28;;
11653;SDS011;5883;48.818;9.114;2023-02-17T01:19:06;4.40;;;2.78;;
11653;SDS011;5883;48.818;9.114;2023-02-17T01:21:32;5.60;;;2.95;;
11653;SDS011;5883;48.818;9.114;2023-02-17T01:23:59;4.10;;;2.92;;
11653;SDS011;5883;48.818;9.114;2023-02-17T01:26:27;3.95;;;2.63;;
11653;SDS011;5883;48.818;9.114;2023-02-17T01:28:55;5.35;;;2.67;;
11653;SDS011;5883;48.818;9.114;2023-02-17T01:31:22;3.60;;;2.75;;
11653;SDS011;5883;48.818;9.114;2023-02-17T01:33:51;5.05;;;2.97;;
11653;SDS011;5883;48.818;9.114;2023-02-17T01:36:17;7.85;;;2.95;;
11653;SDS011;5883;48.818;9.114;2023-02-17T01:38:44;4.18;;;2.85;;
11653;SDS011;5883;48.818;9.114;2023-02-17T01:41:11;4.93;;;2.60;;
11653;SDS011;5883;48.818;9.114;2023-02-17T01:43:38;4.05;;;3.03;;
11653;SDS011;5883;48.818;9.114;2023-02-17T01:46:07;3.60;;;2.97;;
11653;SDS011;5883;48.818;9.114;2023-02-17T01:48:35;3.58;;;2.67;;
11653;SDS011;5883;48.818;9.114;2023-02-17T01:51:03;3.75;;;2.60;;
11653;SDS011;5883;48.818;9.114;2023-02-17T01:53:32;3.42;;;2.75;;
11653;SDS011;5883;48.818;9.114;2023-02-17T01:55:59;7.25;;;2.72;;
11653;SDS011;5883;48.818;9.114;2023-02-17T01:58:26;5.10;;;2.70;;
11653;SDS011;5883;48.818;9.114;2023-02-17T02:00:53;5.32;;;2.70;;
11653;SDS011;5883;48.818;9.114;2023-02-17T02:03:21;3.90;;;2.80;;
11653;SDS011;5883;48.818;9.114;2023-02-17T02:05:48;5.35;;;2.80;;
11653;SDS011;5883;48.818;9.114;2023-02-17T02:08:17;4.32;;;2.67;;
11653;SDS011;5883;48.818;9.114;2023-02-17T02:10:43;9.15;;;2.85;;
11653;SDS011;5883;48.818;9.114;2023-02-17T02:13:10;4.22;;;2.45;;
11653;SDS011;5883;48.818;9.114;2023-02-17T02:15:38;4.75;;;2.80;;
11653;SDS011;5883;48.818;9.114;2023-02-17T02:18:19;3.97;;;3.10;;
11653;SDS011;5883;48.818;9.114;2023-02-17T02:20:54;3.50;;;2.88;;
11653;SDS011;5883;48.818;9.114;2023-02-17T02:23:34;6.22;;;2.97;;
11653;SDS011;5883;48.818;9.114;2023-02-17T02:26:12;9.48;;;3.08;;
11653;SDS011;5883;48.818;9.114;2023-02-17T02:28:46;5.95;;;3.38;;
11653;SDS011;5883;48.818;9.114;2023-02-17T02:31:20;3.78;;;2.70;;
11653;SDS011;5883;48.818;9.114;2023-02-17T02:33:52;6.45;;;2.85;;
11653;SDS011;5883;48.818;9.114;2023-02-17T02:36:23;4.43;;;3.30;;
11653;SDS011;5883;48.818;9.114;2023-02-17T02:38:51;5.18;;;3.00;;
11653;SDS011;5883;48.818;9.114;2023-02-17T02:41:20;4.43;;;3.17;;
11653;SDS011;5883;48.818;9.114;2023-02-17T02:43:47;3.72;;;2.40;;
11653;SDS011;5883;48.818;9.114;2023-02-17T02:46:14;4.45;;;2.47;;
11653;SDS011;5883;48.818;9.114;2023-02-17T02:48:40;4.72;;;2.90;;
11653;SDS011;5883;48.818;9.114;2023-02-17T02:51:15;4.28;;;2.70;;
11653;SDS011;5883;48.818;9.114;2023-02-17T02:53:47;6.05;;;2.75;;
11653;SDS011;5883;48.818;9.114;2023-02-17T02:56:17;5.53;;;2.88;;
11653;SDS011;5883;48.818;9.114;2023-02-17T02:58:48;3.67;;;2.75;;
11653;SDS011;5883;48.818;9.114;2023-02-17T03:01:20;5.90;;;2.47;;
11653;SDS011;5883;48.818;9.114;2023-02-17T03:03:51;3.55;;;2.75;;
11653;SDS011;5883;48.818;9.114;2023-02-17T03:06:21;4.63;;;3.10;;
11653;SDS011;5883;48.818;9.114;2023-02-17T03:08:51;4.65;;;2.75;;
11653;SDS011;5883;48.818;9.114;2023-02-17T03:11:21;7.38;;;3.13;;
11653;SDS011;5883;48.818;9.114;2023-02-17T03:13:58;5.38;;;2.80;;
11653;SDS011;5883;48.818;9.114;2023-02-17T03:16:25;5.63;;;2.50;;
11653;SDS011;5883;48.818;9.114;2023-02-17T03:18:51;8.68;;;2.75;;
11653;SDS011;5883;48.818;9.114;2023-02-17T03:21:17;3.92;;;2.42;;
11653;SDS011;5883;48.818;9.114;2023-02-17T03:23:45;4.63;;;2.80;;
11653;SDS011;5883;48.818;9.114;2023-02-17T03:26:12;5.00;;;2.55;;
11653;SDS011;5883;48.818;9.114;2023-02-17T03:28:38;8.70;;;2.72;;
11653;SDS011;5883;48.818;9.114;2023-02-17T03:31:05;2.90;;;2.40;;
11653;SDS011;5883;48.818;9.114;2023-02-17T03:33:31;5.30;;;2.85;;
11653;SDS011;5883;48.818;9.114;2023-02-17T03:35:58;6.05;;;2.85;;
11653;SDS011;5883;48.818;9.114;2023-02-17T03:38:24;4.10;;;2.60;;
11653;SDS011;5883;48.818;9.114;2023-02-17T03:40:52;4.97;;;2.83;;
11653;SDS011;5883;48.818;9.114;2023-02-17T03:43:18;4.57;;;3.10;;
11653;SDS011;5883;48.818;9.114;2023-02-17T03:45:45;3.72;;;2.63;;
11653;SDS011;5883;48.818;9.114;2023-02-17T03:48:11;5.43;;;2.80;;
11653;SDS011;5883;48.818;9.114;2023-02-17T03:50:38;4.95;;;2.70;;
11653;SDS011;5883;48.818;9.114;2023-02-17T03:53:04;7.07;;;2.83;;
11653;SDS011;5883;48.818;9.114;2023-02-17T03:55:31;6.38;;;2.88;;
11653;SDS011;5883;48.818;9.114;2023-02-17T03:57:58;3.78;;;2.78;;
11653;SDS011;5883;48.818;9.114;2023-02-17T04:00:25;5.07;;;2.95;;
11653;SDS011;5883;48.818;9.114;2023-02-17T04:02:51;5.93;;;2.85;;
11653;SDS011;5883;48.818;9.114;2023-02-17T04:05:18;5.18;;;2.75;;
11653;SDS011;5883;48.818;9.114;2023-02-17T04:07:44;6.07;;;3.00;;
11653;SDS011;5883;48.818;9.114;2023-02-17T04:10:11;4.85;;;2.70;;
11653;SDS011;5883;48.818;9.114;2023-02-17T04:12:37;5.13;;;2.97;;
11653;SDS011;5883;48.818;9.114;2023-02-17T04:15:05;6.38;;;2.88;;
11653;SDS011;5883;48.818;9.114;2023-02-17T04:17:32;4.55;;;2.83;;
11653;SDS011;5883;48.818;9.114;2023-02-17T04:19:58;4.82;;;3.00;;
11653;SDS011;5883;48.818;9.114;2023-02-17T04:22:25;7.15;;;2.65;;
11653;SDS011;5883;48.818;9.114;2023-02-17T04:24:51;4.72;;;3.05;;
11653;SDS011;5883;48.818;9.114;2023-02-17T04:27:17;6.38;;;2.70;;
11653;SDS011;5883;48.818;9.114;2023-02-17T04:29:44;3.97;;;2.58;;
11653;SDS011;5883;48.818;9.114;2023-02-17T04:32:12;5.95;;;3.22;;
11653;SDS011;5883;48.818;9.114;2023-02-17T04:34:38;5.55;;;2.88;;
11653;SDS011;5883;48.818;9.114;2023-02-17T04:37:05;6.38;;;2.72;;
11653;SDS011;5883;48.818;9.114;2023-02-17T04:39:31;3.47;;;2.65;;
11653;SDS011;5883;48.818;9.114;2023-02-17T04:41:58;4.90;;;2.65;;
11653;SDS011;5883;48.818;9.114;2023-02-17T04:44:24;3.42;;;2.60;;
11653;SDS011;5883;48.818;9.114;2023-02-17T04:46:51;4.13;;;2.90;;
11653;SDS011;5883;48.818;9.114;2023-02-17T04:49:18;4.55;;;2.63;;
11653;SDS011;5883;48.818;9.114;2023-02-17T04:51:45;2.60;;;2.40;;
11653;SDS011;5883;48.818;9.114;2023-02-17T04:54:11;3.55;;;2.65;;
11653;SDS011;5883;48.818;9.114;2023-02-17T04:56:38;4.40;;;2.90;;
11653;SDS011;5883;48.818;9.114;2023-02-17T04:59:04;4.50;;;2.80;;
11653;SDS011;5883;48.818;9.114;2023-02-17T05:01:31;5.65;;;3.08;;
11653;SDS011;5883;48.818;9.114;2023-02-17T05:03:57;3.58;;;2.58;;
11653;SDS011;5883;48.818;9.114;2023-02-17T05:06:25;4.97;;;2.85;;
11653;SDS011;5883;48.818;9.114;2023-02-17T05:08:51;4.35;;;2.72;;
11653;SDS011;5883;48.818;9.114;2023-02-17T05:11:18;4.03;;;2.40;;
11653;SDS011;5883;48.818;9.114;2023-02-17T05:13:44;4.72;;;2.63;;
11653;SDS011;5883;48.818;9.114;2023-02-17T05:16:11;3.75;;;2.80;;
11653;SDS011;5883;48.818;9.114;2023-02-17T05:18:37;4.53;;;2.35;;
11653;SDS011;5883;48.818;9.114;2023-02-17T05:21:04;5.03;;;2.97;;
11653;SDS011;5883;48.818;9.114;2023-02-17T05:23:32;3.33;;;2.55;;
11653;SDS011;5883;48.818;9.114;2023-02-17T05:26:05;4.38;;;2.60;;
11653;SDS011;5883;48.818;9.114;2023-02-17T05:28:31;3.20;;;2.40;;
11653;SDS011;5883;48.818;9.114;2023-02-17T05:30:57;5.63;;;2.80;;
11653;SDS011;5883;48.818;9.114;2023-02-17T05:33:25;5.78;;;2.78;;
11653;SDS011;5883;48.818;9.114;2023-02-17T05:35:51;4.32;;;2.60;;
11653;SDS011;5883;48.818;9.114;2023-02-17T05:38:18;3.55;;;2.33;;
11653;SDS011;5883;48.818;9.114;2023-02-17T05:40:46;3.60;;;2.55;;
11653;SDS011;5883;48.818;9.114;2023-02-17T05:43:12;4.43;;;2.72;;
11653;SDS011;5883;48.818;9.114;2023-02-17T05:45:38;3.20;;;2.50;;
11653;SDS011;5883;48.818;9.114;2023-02-17T05:48:05;5.72;;;2.85;;
11653;SDS011;5883;48.818;9.114;2023-02-17T05:50:31;6.22;;;3.28;;
11653;SDS011;5883;48.818;9.114;2023-02-17T05:52:58;5.30;;;2.85;;
11653;SDS011;5883;48.818;9.114;2023-02-17T05:55:24;3.70;;;3.00;;
11653;SDS011;5883;48.818;9.114;2023-02-17T05:57:52;7.05;;;3.38;;
11653;SDS011;5883;48.818;9.114;2023-02-17T06:00:18;5.90;;;3.22;;
11653;SDS011;5883;48.818;9.114;2023-02-17T06:02:45;6.20;;;3.08;;
11653;SDS011;5883;48.818;9.114;2023-02-17T06:05:11;4.70;;;2.95;;
11653;SDS011;5883;48.818;9.114;2023-02-17T06:07:38;4.53;;;2.88;;
11653;SDS011;5883;48.818;9.114;2023-02-17T06:10:05;3.65;;;2.60;;
11653;SDS011;5883;48.818;9.114;2023-02-17T06:12:31;4.60;;;3.00;;
11653;SDS011;5883;48.818;9.114;2023-02-17T06:14:59;4.07;;;2.50;;
11653;SDS011;5883;48.818;9.114;2023-02-17T06:17:26;8.10;;;2.72;;
11653;SDS011;5883;48.818;9.114;2023-02-17T06:19:52;6.97;;;2.75;;
11653;SDS011;5883;48.818;9.114;2023-02-17T06:22:19;5.15;;;3.05;;
11653;SDS011;5883;48.818;9.114;2023-02-17T06:24:45;4.10;;;3.00;;
11653;SDS011;5883;48.818;9.114;2023-02-17T06:27:12;4.47;;;3.03;;
11653;SDS011;5883;48.818;9.114;2023-02-17T06:29:38;6.50;;;2.60;;
11653;SDS011;5883;48.818;9.114;2023-02-17T06:32:06;5.95;;;3.03;;
11653;SDS011;5883;48.818;9.114;2023-02-17T06:34:32;6.30;;;3.50;;
11653;SDS011;5883;48.818;9.114;2023-02-17T06:36:59;6.32;;;2.75;;
11653;SDS011;5883;48.818;9.114;2023-02-17T06:39:25;5.93;;;3.03;;
11653;SDS011;5883;48.818;9.114;2023-02-17T06:41:52;3.58;;;2.55;;
11653;SDS011;5883;48.818;9.114;2023-02-17T06:44:18;4.85;;;2.97;;
11653;SDS011;5883;48.818;9.114;2023-02-17T06:46:44;5.15;;;2.88;;
11653;SDS011;5883;48.818;9.114;2023-02-17T06:49:12;3.45;;;2.40;;
11653;SDS011;5883;48.818;9.114;2023-02-17T06:51:39;4.65;;;2.85;;
11653;SDS011;5883;48.818;9.114;2023-02-17T06:54:06;5.43;;;2.78;;
11653;SDS011;5883;48.818;9.114;2023-02-17T06:56:32;4.75;;;2.92;;
11653;SDS011;5883;48.818;9.114;2023-02-17T06:59:05;4.60;;;2.88;;
11653;SDS011;5883;48.818;9.114;2023-02-17T07:01:32;4.60;;;2.60;;
11653;SDS011;5883;48.818;9.114;2023-02-17T07:03:58;3.60;;;2.63;;
11653;SDS011;5883;48.818;9.114;2023-02-17T07:06:26;4.38;;;2.33;;
11653;SDS011;5883;48.818;9.114;2023-02-17T07:08:52;5.93;;;2.88;;
11653;SDS011;5883;48.818;9.114;2023-02-17T07:11:19;6.35;;;3.70;;
11653;SDS011;5883;48.818;9.114;2023-02-17T07:13:48;4.50;;;2.60;;
11653;SDS011;5883;48.818;9.114;2023-02-17T07:16:14;5.45;;;2.67;;
11653;SDS011;5883;48.818;9.114;2023-02-17T07:18:41;4.90;;;2.90;;
11653;SDS011;5883;48.818;9.114;2023-02-17T07:21:08;3.78;;;2.63;;
11653;SDS011;5883;48.818;9.114;2023-02-17T07:23:36;3.72;;;2.70;;
11653;SDS011;5883;48.818;9.114;2023-02-17T07:26:04;4.47;;;3.05;;
11653;SDS011;5883;48.818;9.114;2023-02-17T07:28:32;3.20;;;2.60;;
11653;SDS011;5883;48.818;9.114;2023-02-17T07:31:03;4.38;;;2.53;;
11653;SDS011;5883;48.818;9.114;2023-02-17T07:33:30;4.78;;;2.60;;
11653;SDS011;5883;48.818;9.114;2023-02-17T07:35:56;2.95;;;2.25;;
11653;SDS011;5883;48.818;9.114;2023-02-17T07:38:23;3.47;;;2.30;;
11653;SDS011;5883;48.818;9.114;2023-02-17T07:40:50;4.20;;;2.53;;
11653;SDS011;5883;48.818;9.114;2023-02-17T07:43:17;3.10;;;2.60;;
11653;SDS011;5883;48.818;9.114;2023-02-17T07:45:43;4.28;;;2.53;;
11653;SDS011;5883;48.818;9.114;2023-02-17T07:48:10;4.40;;;2.50;;
11653;SDS011;5883;48.818;9.114;2023-02-17T07:50:36;5.53;;;3.10;;
11653;SDS011;5883;48.818;9.114;2023-02-17T07:53:02;5.05;;;3.40;;
11653;SDS011;5883;48.818;9.114;2023-02-17T07:55:29;5.53;;;3.20;;
11653;SDS011;5883;48.818;9.114;2023-02-17T07:57:56;3.40;;;2.33;;
11653;SDS011;5883;48.818;9.114;2023-02-17T08:00:24;8.02;;;2.55;;
11653;SDS011;5883;48.818;9.114;2023-02-17T08:02:50;3.17;;;2.33;;
11653;SDS011;5883;48.818;9.114;2023-02-17T08:05:16;4.05;;;2.60;;
11653;SDS011;5883;48.818;9.114;2023-02-17T08:07:43;3.97;;;2.80;;
11653;SDS011;5883;48.818;9.114;2023-02-17T08:10:10;2.30;;;2.10;;
11653;SDS011;5883;48.818;9.114;2023-02-17T08:12:54;2.97;;;2.30;;
11653;SDS011;5883;48.818;9.114;2023-02-17T08:15:40;4.53;;;2.70;;
11653;SDS011;5883;48.818;9.114;2023-02-17T08:18:06;3.45;;;2.40;;
11653;SDS011;5883;48.818;9.114;2023-02-17T08:20:32;2.88;;;2.08;;
11653;SDS011;5883;48.818;9.114;2023-02-17T08:22:59;3.97;;;2.42;;
11653;SDS011;5883;48.818;9.114;2023-02-17T08:25:29;3.42;;;2.35;;
11653;SDS011;5883;48.818;9.114;2023-02-17T08:27:56;4.00;;;2.35;;
11653;SDS011;5883;48.818;9.114;2023-02-17T08:30:22;2.55;;;2.08;;
11653;SDS011;5883;48.818;9.114;2023-02-17T08:32:50;3.10;;;2.35;;
11653;SDS011;5883;48.818;9.114;2023-02-17T08:35:16;3.95;;;2.45;;
11653;SDS011;5883;48.818;9.114;2023-02-17T08:37:43;4.82;;;2.47;;
11653;SDS011;5883;48.818;9.114;2023-02-17T08:40:09;3.83;;;2.60;;
11653;SDS011;5883;48.818;9.114;2023-02-17T08:42:36;2.97;;;2.20;;
11653;SDS011;5883;48.818;9.114;2023-02-17T08:45:03;3.08;;;2.60;;
11653;SDS011;5883;48.818;9.114;2023-02-17T08:47:30;4.32;;;2.30;;
11653;SDS011;5883;48.818;9.114;2023-02-17T08:49:58;2.70;;;2.10;;
11653;SDS011;5883;48.818;9.114;2023-02-17T08:52:24;3.70;;;2.08;;
11653;SDS011;5883;48.818;9.114;2023-02-17T08:54:50;3.65;;;2.40;;
11653;SDS011;5883;48.818;9.114;2023-02-17T08:57:17;3.72;;;2.28;;
11653;SDS011;5883;48.818;9.114;2023-02-17T08:59:45;3.65;;;2.05;;
11653;SDS011;5883;48.818;9.114;2023-02-17T09:02:12;2.95;;;1.90;;
11653;SDS011;5883;48.818;9.114;2023-02-17T09:04:38;3.67;;;2.28;;
11653;SDS011;5883;48.818;9.114;2023-02-17T09:07:07;2.90;;;2.00;;
11653;SDS011;5883;48.818;9.114;2023-02-17T09:09:34;2.53;;;2.08;;
11653;SDS011;5883;48.818;9.114;2023-02-17T09:12:00;5.43;;;2.20;;
11653;SDS011;5883;48.818;9.114;2023-02-17T09:14:27;2.55;;;2.17;;
11653;SDS011;5883;48.818;9.114;2023-02-17T09:16:54;3.05;;;2.17;;
11653;SDS011;5883;48.818;9.114;2023-02-17T09:19:20;2.97;;;2.10;;
11653;SDS011;5883;48.818;9.114;2023-02-17T09:21:47;2.80;;;2.08;;
11653;SDS011;5883;48.818;9.114;2023-02-17T09:24:15;3.92;;;2.15;;
11653;SDS011;5883;48.818;9.114;2023-02-17T09:26:42;3.10;;;1.90;;
11653;SDS011;5883;48.818;9.114;2023-02-17T09:29:08;3.85;;;2.08;;
11653;SDS011;5883;48.818;9.114;2023-02-17T09:31:35;4.30;;;2.20;;
11653;SDS011;5883;48.818;9.114;2023-02-17T09:34:01;2.20;;;2.00;;
11653;SDS011;5883;48.818;9.114;2023-02-17T09:36:29;2.80;;;1.70;;
11653;SDS011;5883;48.818;9.114;2023-02-17T09:38:55;5.28;;;2.10;;
11653;SDS011;5883;48.818;9.114;2023-02-17T09:41:25;1.83;;;1.70;;
11653;SDS011;5883;48.818;9.114;2023-02-17T09:43:52;3.40;;;1.70;;
11653;SDS011;5883;48.818;9.114;2023-02-17T09:46:20;3.15;;;1.73;;
11653;SDS011;5883;48.818;9.114;2023-02-17T09:48:48;2.03;;;1.58;;
11653;SDS011;5883;48.818;9.114;2023-02-17T09:51:18;2.40;;;1.80;;
11653;SDS011;5883;48.818;9.114;2023-02-17T09:53:46;2.13;;;1.92;;
11653;SDS011;5883;48.818;9.114;2023-02-17T09:56:15;2.28;;;1.70;;
11653;SDS011;5883;48.818;9.114;2023-02-17T09:58:45;2.70;;;1.50;;
11653;SDS011;5883;48.818;9.114;2023-02-17T10:01:14;3.22;;;1.90;;
11653;SDS011;5883;48.818;9.114;2023-02-17T10:03:42;2.33;;;2.00;;
11653;SDS011;5883;48.818;9.114;2023-02-17T10:06:11;2.90;;;1.70;;
11653;SDS011;5883;48.818;9.114;2023-02-17T10:08:40;1.55;;;1.45;;
11653;SDS011;5883;48.818;9.114;2023-02-17T10:11:10;1.85;;;1.35;;
11653;SDS011;5883;48.818;9.114;2023-02-17T10:13:38;1.55;;;1.40;;
11653;SDS011;5883;48.818;9.114;2023-02-17T10:16:08;3.50;;;1.55;;
11653;SDS011;5883;48.818;9.114;2023-02-17T10:18:36;2.25;;;1.60;;
11653;SDS011;5883;48.818;9.114;2023-02-17T10:21:06;1.90;;;1.70;;
11653;SDS011;5883;48.818;9.114;2023-02-17T10:23:35;2.65;;;1.60;;
11653;SDS011;5883;48.818;9.114;2023-02-17T10:26:07;3.78;;;1.67;;
11653;SDS011;5883;48.818;9.114;2023-02-17T10:28:41;1.63;;;1.30;;
11653;SDS011;5883;48.818;9.114;2023-02-17T10:31:11;1.45;;;1.20;;
11653;SDS011;5883;48.818;9.114;2023-02-17T10:33:41;1.85;;;1.65;;
11653;SDS011;5883;48.818;9.114;2023-02-17T10:36:10;1.95;;;1.52;;
11653;SDS011;5883;48.818;9.114;2023-02-17T10:38:42;1.50;;;1.30;;
11653;SDS011;5883;48.818;9.114;2023-02-17T10:41:11;2.85;;;1.50;;
11653;SDS011;5883;48.818;9.114;2023-02-17T10:43:38;1.45;;;1.30;;
11653;SDS011;5883;48.818;9.114;2023-02-17T10:46:05;3.45;;;1.33;;
11653;SDS011;5883;48.818;9.114;2023-02-17T10:48:36;2.05;;;1.20;;
11653;SDS011;5883;48.818;9.114;2023-02-17T10:51:03;1.77;;;1.23;;
11653;SDS011;5883;48.818;9.114;2023-02-17T10:53:30;2.30;;;1.08;;
11653;SDS011;5883;48.818;9.114;2023-02-17T10:55:59;2.85;;;1.40;;
11653;SDS011;5883;48.818;9.114;2023-02-17T10:58:29;1.17;;;1.08;;
11653;SDS011;5883;48.818;9.114;2023-02-17T11:00:56;2.15;;;1.23;;
11653;SDS011;5883;48.818;9.114;2023-02-17T11:03:23;2.45;;;0.90;;
11653;SDS011;5883;48.818;9.114;2023-02-17T11:05:52;0.93;;;0.90;;
11653;SDS011;5883;48.818;9.114;2023-02-17T11:08:23;1.02;;;0.93;;
11653;SDS011;5883;48.818;9.114;2023-02-17T11:10:57;1.17;;;1.08;;
11653;SDS011;5883;48.818;9.114;2023-02-17T11:13:27;2.63;;;1.00;;
11653;SDS011;5883;48.818;9.114;2023-02-17T11:15:55;1.70;;;0.95;;
11653;SDS011;5883;48.818;9.114;2023-02-17T11:18:23;3.88;;;1.00;;
11653;SDS011;5883;48.818;9.114;2023-02-17T11:20:58;1.05;;;1.00;;
11653;SDS011;5883;48.818;9.114;2023-02-17T11:23:24;1.05;;;0.90;;
11653;SDS011;5883;48.818;9.114;2023-02-17T11:25:55;1.20;;;1.10;;
11653;SDS011;5883;48.818;9.114;2023-02-17T11:28:23;1.20;;;1.10;;
11653;SDS011;5883;48.818;9.114;2023-02-17T11:30:50;1.67;;;0.90;;
11653;SDS011;5883;48.818;9.114;2023-02-17T11:33:19;3.83;;;1.05;;
11653;SDS011;5883;48.818;9.114;2023-02-17T11:35:48;2.05;;;0.90;;
11653;SDS011;5883;48.818;9.114;2023-02-17T11:38:16;0.90;;;0.80;;
11653;SDS011;5883;48.818;9.114;2023-02-17T11:40:50;3.20;;;1.00;;
11653;SDS011;5883;48.818;9.114;2023-02-17T11:43:17;0.80;;;0.80;;
11653;SDS011;5883;48.818;9.114;2023-02-17T11:45:46;1.15;;;0.80;;
11653;SDS011;5883;48.818;9.114;2023-02-17T11:48:21;1.23;;;0.98;;
11653;SDS011;5883;48.818;9.114;2023-02-17T11:50:56;2.55;;;1.00;;
11653;SDS011;5883;48.818;9.114;2023-02-17T11:53:28;0.70;;;0.70;;
11653;SDS011;5883;48.818;9.114;2023-02-17T11:56:01;0.90;;;0.80;;
11653;SDS011;5883;48.818;9.114;2023-02-17T11:58:34;0.80;;;0.80;;
11653;SDS011;5883;48.818;9.114;2023-02-17T12:01:04;3.63;;;0.93;;
11653;SDS011;5883;48.818;9.114;2023-02-17T12:03:46;0.70;;;0.70;;
11653;SDS011;5883;48.818;9.114;2023-02-17T12:06:20;0.90;;;0.77;;
11653;SDS011;5883;48.818;9.114;2023-02-17T12:08:53;0.77;;;0.77;;
11653;SDS011;5883;48.818;9.114;2023-02-17T12:11:25;0.70;;;0.70;;
11653;SDS011;5883;48.818;9.114;2023-02-17T12:13:55;0.80;;;0.80;;
11653;SDS011;5883;48.818;9.114;2023-02-17T12:16:27;1.02;;;0.93;;
11653;SDS011;5883;48.818;9.114;2023-02-17T12:18:59;1.00;;;0.90;;
11653;SDS011;5883;48.818;9.114;2023-02-17T12:21:30;0.93;;;0.90;;
11653;SDS011;5883;48.818;9.114;2023-02-17T12:24:06;1.70;;;0.93;;
11653;SDS011;5883;48.818;9.114;2023-02-17T12:26:40;1.70;;;0.85;;
11653;SDS011;5883;48.818;9.114;2023-02-17T12:29:14;1.33;;;0.90;;
11653;SDS011;5883;48.818;9.114;2023-02-17T12:31:49;0.70;;;0.70;;
11653;SDS011;5883;48.818;9.114;2023-02-17T12:34:20;2.15;;;0.80;;
11653;SDS011;5883;48.818;9.114;2023-02-17T12:36:51;0.80;;;0.80;;
11653;SDS011;5883;48.818;9.114;2023-02-17T12:39:21;0.85;;;0.80;;
11653;SDS011;5883;48.818;9.114;2023-02-17T12:41:50;0.90;;;0.80;;
11653;SDS011;5883;48.818;9.114;2023-02-17T12:44:19;1.05;;;0.80;;
11653;SDS011;5883;48.818;9.114;2023-02-17T12:46:46;0.85;;;0.70;;
11653;SDS011;5883;48.818;9.114;2023-02-17T12:49:15;1.85;;;1.00;;
11653;SDS011;5883;48.818;9.114;2023-02-17T12:51:44;3.33;;;1.00;;
11653;SDS011;5883;48.818;9.114;2023-02-17T12:54:15;1.02;;;0.90;;
11653;SDS011;5883;48.818;9.114;2023-02-17T12:56:48;1.30;;;1.20;;
11653;SDS011;5883;48.818;9.114;2023-02-17T12:59:19;3.92;;;1.08;;
11653;SDS011;5883;48.818;9.114;2023-02-17T13:01:51;4.18;;;0.90;;
11653;SDS011;5883;48.818;9.114;2023-02-17T13:04:19;1.45;;;1.33;;
11653;SDS011;5883;48.818;9.114;2023-02-17T13:06:50;1.45;;;1.00;;
11653;SDS011;5883;48.818;9.114;2023-02-17T13:09:20;1.42;;;0.90;;
11653;SDS011;5883;48.818;9.114;2023-02-17T13:11:50;0.80;;;0.80;;
11653;SDS011;5883;48.818;9.114;2023-02-17T13:14:23;1.60;;;0.95;;
11653;SDS011;5883;48.818;9.114;2023-02-17T13:16:50;1.30;;;1.10;;
11653;SDS011;5883;48.818;9.114;2023-02-17T13:19:26;2.40;;;0.90;;
11653;SDS011;5883;48.818;9.114;2023-02-17T13:21:53;1.40;;;1.15;;
11653;SDS011;5883;48.818;9.114;2023-02-17T13:24:29;1.08;;;0.90;;
11653;SDS011;5883;48.818;9.114;2023-02-17T13:27:07;1.10;;;1.00;;
11653;SDS011;5883;48.818;9.114;2023-02-17T13:29:35;1.10;;;1.00;;
11653;SDS011;5883;48.818;9.114;2023-02-17T13:32:02;0.90;;;0.90;;
11653;SDS011;5883;48.818;9.114;2023-02-17T13:34:31;1.80;;;1.50;;
11653;SDS011;5883;48.818;9.114;2023-02-17T13:36:58;1.67;;;1.10;;
11653;SDS011;5883;48.818;9.114;2023-02-17T13:39:30;0.93;;;0.90;;
11653;SDS011;5883;48.818;9.114;2023-02-17T13:41:58;0.85;;;0.82;;
11653;SDS011;5883;48.818;9.114;2023-02-17T13:44:26;1.17;;;1.00;;
11653;SDS011;5883;48.818;9.114;2023-02-17T13:46:53;1.10;;;1.00;;
11653;SDS011;5883;48.818;9.114;2023-02-17T13:49:23;1.00;;;0.88;;
11653;SDS011;5883;48.818;9.114;2023-02-17T13:51:51;0.70;;;0.70;;
11653;SDS011;5883;48.818;9.114;2023-02-17T13:54:18;0.80;;;0.80;;
11653;SDS011;5883;48.818;9.114;2023-02-17T13:56:48;1.00;;;0.90;;
11653;SDS011;5883;48.818;9.114;2023-02-17T13:59:17;1.75;;;0.90;;
11653;SDS011;5883;48.818;9.114;2023-02-17T14:01:48;6.35;;;1.30;;
11653;SDS011;5883;48.818;9.114;2023-02-17T14:04:16;0.90;;;0.90;;
11653;SDS011;5883;48.818;9.114;2023-02-17T14:06:44;0.80;;;0.80;;
11653;SDS011;5883;48.818;9.114;2023-02-17T14:09:11;2.67;;;0.98;;
11653;SDS011;5883;48.818;9.114;2023-02-17T14:11:37;2.70;;;1.13;;
11653;SDS011;5883;48.818;9.114;2023-02-17T14:14:05;4.60;;;0.95;;
11653;SDS011;5883;48.818;9.114;2023-02-17T14:16:34;0.88;;;0.88;;
11653;SDS011;5883;48.818;9.114;2023-02-17T14:19:01;2.10;;;1.20;;
11653;SDS011;5883;48.818;9.114;2023-02-17T14:21:28;0.80;;;0.80;;
11653;SDS011;5883;48.818;9.114;2023-02-17T14:23:55;1.00;;;0.82;;
11653;SDS011;5883;48.818;9.114;2023-02-17T14:26:26;0.88;;;0.88;;
11653;SDS011;5883;48.818;9.114;2023-02-17T14:28:53;1.88;;;1.30;;
11653;SDS011;5883;48.818;9.114;2023-02-17T14:31:20;1.20;;;0.90;;
11653;SDS011;5883;48.818;9.114;2023-02-17T14:33:59;1.85;;;1.25;;
11653;SDS011;5883;48.818;9.114;2023-02-17T14:36:30;1.23;;;0.90;;
11653;SDS011;5883;48.818;9.114;2023-02-17T14:38:58;1.00;;;0.90;;
11653;SDS011;5883;48.818;9.114;2023-02-17T14:41:24;1.10;;;1.00;;
11653;SDS011;5883;48.818;9.114;2023-02-17T14:43:51;1.25;;;1.05;;
11653;SDS011;5883;48.818;9.114;2023-02-17T14:46:17;1.25;;;1.15;;
11653;SDS011;5883;48.818;9.114;2023-02-17T14:48:44;1.83;;;1.20;;
11653;SDS011;5883;48.818;9.114;2023-02-17T14:51:12;1.20;;;1.00;;
11653;SDS011;5883;48.818;9.114;2023-02-17T14:53:39;1.90;;;1.30;;
11653;SDS011;5883;48.818;9.114;2023-02-17T14:56:06;1.70;;;1.10;;
11653;SDS011;5883;48.818;9.114;2023-02-17T14:58:34;2.33;;;1.27;;
11653;SDS011;5883;48.818;9.114;2023-02-17T15:01:00;5.53;;;1.17;;
11653;SDS011;5883;48.818;9.114;2023-02-17T15:03:26;1.10;;;1.00;;
11653;SDS011;5883;48.818;9.114;2023-02-17T15:05:53;2.53;;;1.25;;
11653;SDS011;5883;48.818;9.114;2023-02-17T15:08:21;1.52;;;1.33;;